sensor_id;sensor_type;location;lat;lon;timestamp;temperature;humidity
32334;DHT22;18810;53.040;8.850;2022-11-10T00:01:56;10.50;99.90
32334;DHT22;18810;53.040;8.850;2022-11-10T00:04:22;10.50;99.90
32334;DHT22;18810;53.040;8.850;2022-11-10T00:06:48;10.50;99.90
32334;DHT22;18810;53.040;8.850;2022-11-10T00:09:14;10.50;99.90
32334;DHT22;18810;53.040;8.850;2022-11-10T00:11:40;10.40;99.90
32334;DHT22;18810;53.040;8.850;2022-11-10T00:14:07;10.40;99.90
32334;DHT22;18810;53.040;8.850;2022-11-10T00:16:52;10.40;99.90
32334;DHT22;18810;53.040;8.850;2022-11-10T00:19:32;10.40;99.90
32334;DHT22;18810;53.040;8.850;2022-11-10T00:21:59;10.40;99.90
32334;DHT22;18810;53.040;8.850;2022-11-10T00:24:26;10.40;99.90
32334;DHT22;18810;53.040;8.850;2022-11-10T00:26:53;10.30;99.90
32334;DHT22;18810;53.040;8.850;2022-11-10T00:29:19;10.40;99.90
32334;DHT22;18810;53.040;8.850;2022-11-10T00:31:45;10.30;99.90
32334;DHT22;18810;53.040;8.850;2022-11-10T00:34:14;10.30;99.90
32334;DHT22;18810;53.040;8.850;2022-11-10T00:41:32;10.30;99.90
32334;DHT22;18810;53.040;8.850;2022-11-10T00:46:23;10.30;99.90
32334;DHT22;18810;53.040;8.850;2022-11-10T00:48:49;10.30;99.90
32334;DHT22;18810;53.040;8.850;2022-11-10T00:51:26;10.40;99.90
32334;DHT22;18810;53.040;8.850;2022-11-10T00:53:52;10.30;99.90
32334;DHT22;18810;53.040;8.850;2022-11-10T00:56:19;10.30;99.90
32334;DHT22;18810;53.040;8.850;2022-11-10T00:58:45;10.30;99.90
32334;DHT22;18810;53.040;8.850;2022-11-10T01:01:11;10.30;99.90
32334;DHT22;18810;53.040;8.850;2022-11-10T01:03:37;10.30;99.90
32334;DHT22;18810;53.040;8.850;2022-11-10T01:06:07;10.30;99.90
32334;DHT22;18810;53.040;8.850;2022-11-10T01:08:33;10.30;99.90
32334;DHT22;18810;53.040;8.850;2022-11-10T01:11:09;10.40;99.90
32334;DHT22;18810;53.040;8.850;2022-11-10T01:13:36;10.40;99.90
32334;DHT22;18810;53.040;8.850;2022-11-10T01:16:04;10.40;99.90
32334;DHT22;18810;53.040;8.850;2022-11-10T01:18:30;10.40;99.90
32334;DHT22;18810;53.040;8.850;2022-11-10T01:20:56;10.30;99.90
32334;DHT22;18810;53.040;8.850;2022-11-10T01:28:13;10.20;99.90
32334;DHT22;18810;53.040;8.850;2022-11-10T01:30:39;10.10;99.90
32334;DHT22;18810;53.040;8.850;2022-11-10T01:33:04;10.10;99.90
32334;DHT22;18810;53.040;8.850;2022-11-10T01:35:30;10.10;99.90
32334;DHT22;18810;53.040;8.850;2022-11-10T01:37:57;10.10;99.90
32334;DHT22;18810;53.040;8.850;2022-11-10T01:40:23;10.10;99.90
32334;DHT22;18810;53.040;8.850;2022-11-10T01:42:51;10.00;99.90
32334;DHT22;18810;53.040;8.850;2022-11-10T01:47:55;10.10;99.90
32334;DHT22;18810;53.040;8.850;2022-11-10T01:50:26;10.10;99.90
32334;DHT22;18810;53.040;8.850;2022-11-10T01:52:56;10.10;99.90
32334;DHT22;18810;53.040;8.850;2022-11-10T01:55:23;10.00;99.90
32334;DHT22;18810;53.040;8.850;2022-11-10T01:57:49;10.00;99.90
32334;DHT22;18810;53.040;8.850;2022-11-10T02:00:17;10.00;99.90
32334;DHT22;18810;53.040;8.850;2022-11-10T02:02:53;10.10;99.90
32334;DHT22;18810;53.040;8.850;2022-11-10T02:05:22;10.00;99.90
32334;DHT22;18810;53.040;8.850;2022-11-10T02:07:49;9.90;99.90
32334;DHT22;18810;53.040;8.850;2022-11-10T02:10:17;10.00;99.90
32334;DHT22;18810;53.040;8.850;2022-11-10T02:12:44;9.90;99.90
32334;DHT22;18810;53.040;8.850;2022-11-10T02:15:13;9.80;99.90
32334;DHT22;18810;53.040;8.850;2022-11-10T02:17:40;9.80;99.90
32334;DHT22;18810;53.040;8.850;2022-11-10T02:20:09;9.90;99.90
32334;DHT22;18810;53.040;8.850;2022-11-10T02:22:36;9.80;99.90
32334;DHT22;18810;53.040;8.850;2022-11-10T02:25:03;9.80;99.90
32334;DHT22;18810;53.040;8.850;2022-11-10T02:27:29;9.80;99.90
32334;DHT22;18810;53.040;8.850;2022-11-10T02:29:55;9.80;99.90
32334;DHT22;18810;53.040;8.850;2022-11-10T02:32:21;9.80;99.90
32334;DHT22;18810;53.040;8.850;2022-11-10T02:44:39;9.70;99.90
32334;DHT22;18810;53.040;8.850;2022-11-10T02:47:05;9.70;99.90
32334;DHT22;18810;53.040;8.850;2022-11-10T02:49:31;9.70;99.90
32334;DHT22;18810;53.040;8.850;2022-11-10T02:51:56;10.50;99.90
32334;DHT22;18810;53.040;8.850;2022-11-10T02:54:22;9.60;99.90
32334;DHT22;18810;53.040;8.850;2022-11-10T02:56:48;9.70;99.90
32334;DHT22;18810;53.040;8.850;2022-11-10T02:59:14;9.60;99.90
32334;DHT22;18810;53.040;8.850;2022-11-10T03:01:39;9.60;99.90
32334;DHT22;18810;53.040;8.850;2022-11-10T03:04:05;9.60;99.90
32334;DHT22;18810;53.040;8.850;2022-11-10T03:06:31;9.60;99.90
32334;DHT22;18810;53.040;8.850;2022-11-10T03:16:16;9.50;99.90
32334;DHT22;18810;53.040;8.850;2022-11-10T03:18:42;9.50;99.90
32334;DHT22;18810;53.040;8.850;2022-11-10T03:21:08;9.50;99.90
32334;DHT22;18810;53.040;8.850;2022-11-10T03:23:34;9.50;99.90
32334;DHT22;18810;53.040;8.850;2022-11-10T03:26:03;9.50;99.90
32334;DHT22;18810;53.040;8.850;2022-11-10T03:28:29;9.40;99.90
32334;DHT22;18810;53.040;8.850;2022-11-10T03:30:55;9.40;99.90
32334;DHT22;18810;53.040;8.850;2022-11-10T03:33:20;9.40;99.90
32334;DHT22;18810;53.040;8.850;2022-11-10T03:35:46;9.40;99.90
32334;DHT22;18810;53.040;8.850;2022-11-10T03:38:12;9.40;99.90
32334;DHT22;18810;53.040;8.850;2022-11-10T03:43:04;9.40;99.90
32334;DHT22;18810;53.040;8.850;2022-11-10T03:45:29;9.40;99.90
32334;DHT22;18810;53.040;8.850;2022-11-10T03:50:21;9.40;99.90
32334;DHT22;18810;53.040;8.850;2022-11-10T03:52:47;9.40;99.90
32334;DHT22;18810;53.040;8.850;2022-11-10T03:55:15;9.40;99.90
32334;DHT22;18810;53.040;8.850;2022-11-10T04:00:08;9.40;99.90
32334;DHT22;18810;53.040;8.850;2022-11-10T04:02:35;9.30;99.90
32334;DHT22;18810;53.040;8.850;2022-11-10T04:05:01;9.30;99.90
32334;DHT22;18810;53.040;8.850;2022-11-10T04:07:45;9.40;99.90
32334;DHT22;18810;53.040;8.850;2022-11-10T04:10:29;9.40;99.90
32334;DHT22;18810;53.040;8.850;2022-11-10T04:12:55;9.30;99.90
32334;DHT22;18810;53.040;8.850;2022-11-10T04:15:39;9.30;99.90
32334;DHT22;18810;53.040;8.850;2022-11-10T04:18:12;9.30;99.90
32334;DHT22;18810;53.040;8.850;2022-11-10T04:20:55;9.30;99.90
32334;DHT22;18810;53.040;8.850;2022-11-10T04:23:22;9.30;99.90
32334;DHT22;18810;53.040;8.850;2022-11-10T04:28:42;9.40;99.90
32334;DHT22;18810;53.040;8.850;2022-11-10T04:31:08;9.30;99.90
32334;DHT22;18810;53.040;8.850;2022-11-10T04:33:34;9.40;99.90
32334;DHT22;18810;53.040;8.850;2022-11-10T04:36:00;9.30;99.90
32334;DHT22;18810;53.040;8.850;2022-11-10T04:38:26;9.20;99.90
32334;DHT22;18810;53.040;8.850;2022-11-10T04:40:52;9.30;99.90
32334;DHT22;18810;53.040;8.850;2022-11-10T04:43:18;9.30;99.90
32334;DHT22;18810;53.040;8.850;2022-11-10T04:48:09;9.20;99.90
32334;DHT22;18810;53.040;8.850;2022-11-10T04:50:35;9.30;99.90
32334;DHT22;18810;53.040;8.850;2022-11-10T04:55:26;9.20;99.90
32334;DHT22;18810;53.040;8.850;2022-11-10T04:57:52;9.30;99.90
32334;DHT22;18810;53.040;8.850;2022-11-10T05:00:18;9.30;99.90
32334;DHT22;18810;53.040;8.850;2022-11-10T05:02:43;9.30;99.90
32334;DHT22;18810;53.040;8.850;2022-11-10T05:05:09;9.30;99.90
32334;DHT22;18810;53.040;8.850;2022-11-10T05:07:36;9.20;99.90
32334;DHT22;18810;53.040;8.850;2022-11-10T05:10:02;9.30;99.90
32334;DHT22;18810;53.040;8.850;2022-11-10T05:12:28;9.30;99.90
32334;DHT22;18810;53.040;8.850;2022-11-10T05:14:53;9.40;99.90
32334;DHT22;18810;53.040;8.850;2022-11-10T05:17:20;9.40;99.90
32334;DHT22;18810;53.040;8.850;2022-11-10T05:19:46;9.40;99.90
32334;DHT22;18810;53.040;8.850;2022-11-10T05:22:12;9.40;99.90
32334;DHT22;18810;53.040;8.850;2022-11-10T05:24:38;9.50;99.90
32334;DHT22;18810;53.040;8.850;2022-11-10T05:27:04;9.50;99.90
32334;DHT22;18810;53.040;8.850;2022-11-10T05:29:29;9.50;99.90
32334;DHT22;18810;53.040;8.850;2022-11-10T05:31:55;9.50;99.90
32334;DHT22;18810;53.040;8.850;2022-11-10T05:36:47;9.70;99.90
32334;DHT22;18810;53.040;8.850;2022-11-10T05:41:39;9.60;99.90
32334;DHT22;18810;53.040;8.850;2022-11-10T05:46:31;9.70;99.90
32334;DHT22;18810;53.040;8.850;2022-11-10T05:48:56;9.60;99.90
32334;DHT22;18810;53.040;8.850;2022-11-10T05:53:58;9.70;99.90
32334;DHT22;18810;53.040;8.850;2022-11-10T05:56:23;9.70;99.90
32334;DHT22;18810;53.040;8.850;2022-11-10T05:58:49;9.70;99.90
32334;DHT22;18810;53.040;8.850;2022-11-10T06:01:15;9.70;99.90
32334;DHT22;18810;53.040;8.850;2022-11-10T06:03:40;9.80;99.90
32334;DHT22;18810;53.040;8.850;2022-11-10T06:06:06;9.90;99.90
32334;DHT22;18810;53.040;8.850;2022-11-10T06:08:32;9.90;99.90
32334;DHT22;18810;53.040;8.850;2022-11-10T06:10:58;9.90;99.90
32334;DHT22;18810;53.040;8.850;2022-11-10T06:13:23;10.00;99.90
32334;DHT22;18810;53.040;8.850;2022-11-10T06:15:50;10.00;99.90
32334;DHT22;18810;53.040;8.850;2022-11-10T06:18:16;10.10;99.90
32334;DHT22;18810;53.040;8.850;2022-11-10T06:20:42;10.10;99.90
32334;DHT22;18810;53.040;8.850;2022-11-10T06:23:12;10.10;99.90
32334;DHT22;18810;53.040;8.850;2022-11-10T06:25:39;10.10;99.90
32334;DHT22;18810;53.040;8.850;2022-11-10T06:28:06;10.10;99.90
32334;DHT22;18810;53.040;8.850;2022-11-10T06:30:34;10.10;99.90
32334;DHT22;18810;53.040;8.850;2022-11-10T06:33:00;10.20;99.90
32334;DHT22;18810;53.040;8.850;2022-11-10T06:35:26;10.20;99.90
32334;DHT22;18810;53.040;8.850;2022-11-10T06:38:18;10.10;99.90
32334;DHT22;18810;53.040;8.850;2022-11-10T06:40:44;10.30;99.90
32334;DHT22;18810;53.040;8.850;2022-11-10T06:43:10;10.30;99.90
32334;DHT22;18810;53.040;8.850;2022-11-10T06:45:35;10.40;99.90
32334;DHT22;18810;53.040;8.850;2022-11-10T06:50:28;10.30;99.90
32334;DHT22;18810;53.040;8.850;2022-11-10T06:52:55;10.40;99.90
32334;DHT22;18810;53.040;8.850;2022-11-10T06:55:21;10.40;99.90
32334;DHT22;18810;53.040;8.850;2022-11-10T06:57:47;10.50;99.90
32334;DHT22;18810;53.040;8.850;2022-11-10T07:00:14;10.50;99.90
32334;DHT22;18810;53.040;8.850;2022-11-10T07:02:40;10.50;99.90
32334;DHT22;18810;53.040;8.850;2022-11-10T07:05:06;10.50;99.90
32334;DHT22;18810;53.040;8.850;2022-11-10T07:07:32;10.60;99.90
32334;DHT22;18810;53.040;8.850;2022-11-10T07:09:57;10.60;99.90
32334;DHT22;18810;53.040;8.850;2022-11-10T07:12:23;10.60;99.90
32334;DHT22;18810;53.040;8.850;2022-11-10T07:14:49;10.70;99.90
32334;DHT22;18810;53.040;8.850;2022-11-10T07:17:14;10.80;99.90
32334;DHT22;18810;53.040;8.850;2022-11-10T07:19:40;10.80;99.90
32334;DHT22;18810;53.040;8.850;2022-11-10T07:22:06;10.70;99.90
32334;DHT22;18810;53.040;8.850;2022-11-10T07:24:32;10.80;99.90
32334;DHT22;18810;53.040;8.850;2022-11-10T07:26:58;10.80;99.90
32334;DHT22;18810;53.040;8.850;2022-11-10T07:29:24;10.80;99.90
32334;DHT22;18810;53.040;8.850;2022-11-10T07:31:51;10.80;99.90
32334;DHT22;18810;53.040;8.850;2022-11-10T07:34:16;10.70;99.90
32334;DHT22;18810;53.040;8.850;2022-11-10T07:36:42;10.80;99.90
32334;DHT22;18810;53.040;8.850;2022-11-10T07:39:09;10.90;99.90
32334;DHT22;18810;53.040;8.850;2022-11-10T07:41:35;10.90;99.90
32334;DHT22;18810;53.040;8.850;2022-11-10T07:44:02;10.90;99.90
32334;DHT22;18810;53.040;8.850;2022-11-10T07:46:28;11.10;99.90
32334;DHT22;18810;53.040;8.850;2022-11-10T07:48:54;11.10;99.90
32334;DHT22;18810;53.040;8.850;2022-11-10T07:51:20;11.20;99.90
32334;DHT22;18810;53.040;8.850;2022-11-10T07:53:45;11.20;99.90
32334;DHT22;18810;53.040;8.850;2022-11-10T07:56:11;11.30;99.90
32334;DHT22;18810;53.040;8.850;2022-11-10T07:58:37;11.40;99.90
32334;DHT22;18810;53.040;8.850;2022-11-10T08:01:03;11.50;99.90
32334;DHT22;18810;53.040;8.850;2022-11-10T08:03:29;11.50;99.90
32334;DHT22;18810;53.040;8.850;2022-11-10T08:05:55;11.50;99.90
32334;DHT22;18810;53.040;8.850;2022-11-10T08:08:20;11.50;99.90
32334;DHT22;18810;53.040;8.850;2022-11-10T08:10:46;11.40;99.90
32334;DHT22;18810;53.040;8.850;2022-11-10T08:13:13;11.40;99.90
32334;DHT22;18810;53.040;8.850;2022-11-10T08:15:39;11.50;99.90
32334;DHT22;18810;53.040;8.850;2022-11-10T08:20:38;11.50;99.90
32334;DHT22;18810;53.040;8.850;2022-11-10T08:23:05;11.80;99.90
32334;DHT22;18810;53.040;8.850;2022-11-10T08:25:33;11.80;99.90
32334;DHT22;18810;53.040;8.850;2022-11-10T08:28:07;12.00;99.90
32334;DHT22;18810;53.040;8.850;2022-11-10T08:30:35;12.20;99.90
32334;DHT22;18810;53.040;8.850;2022-11-10T08:33:01;12.30;99.90
32334;DHT22;18810;53.040;8.850;2022-11-10T08:35:30;12.10;99.90
32334;DHT22;18810;53.040;8.850;2022-11-10T08:37:56;12.10;99.90
32334;DHT22;18810;53.040;8.850;2022-11-10T08:40:22;12.10;99.90
32334;DHT22;18810;53.040;8.850;2022-11-10T08:42:59;12.10;99.90
32334;DHT22;18810;53.040;8.850;2022-11-10T08:45:26;12.00;99.90
32334;DHT22;18810;53.040;8.850;2022-11-10T08:48:03;12.10;99.90
32334;DHT22;18810;53.040;8.850;2022-11-10T08:50:29;12.20;99.90
32334;DHT22;18810;53.040;8.850;2022-11-10T08:52:55;12.20;99.90
32334;DHT22;18810;53.040;8.850;2022-11-10T08:55:22;12.10;99.90
32334;DHT22;18810;53.040;8.850;2022-11-10T08:57:48;12.00;99.90
32334;DHT22;18810;53.040;8.850;2022-11-10T09:00:15;12.00;99.90
32334;DHT22;18810;53.040;8.850;2022-11-10T09:02:41;12.00;99.90
32334;DHT22;18810;53.040;8.850;2022-11-10T09:05:07;12.20;99.90
32334;DHT22;18810;53.040;8.850;2022-11-10T09:07:47;12.30;99.90
32334;DHT22;18810;53.040;8.850;2022-11-10T09:10:14;12.50;99.90
32334;DHT22;18810;53.040;8.850;2022-11-10T09:12:41;12.60;99.90
32334;DHT22;18810;53.040;8.850;2022-11-10T09:15:08;12.90;99.90
32334;DHT22;18810;53.040;8.850;2022-11-10T09:17:34;12.90;99.90
32334;DHT22;18810;53.040;8.850;2022-11-10T09:20:00;12.80;99.90
32334;DHT22;18810;53.040;8.850;2022-11-10T09:22:26;12.90;99.90
32334;DHT22;18810;53.040;8.850;2022-11-10T09:24:52;12.90;99.90
32334;DHT22;18810;53.040;8.850;2022-11-10T09:27:18;13.10;99.90
32334;DHT22;18810;53.040;8.850;2022-11-10T09:29:43;13.30;99.90
32334;DHT22;18810;53.040;8.850;2022-11-10T09:32:09;13.40;99.90
32334;DHT22;18810;53.040;8.850;2022-11-10T09:34:35;13.70;99.90
32334;DHT22;18810;53.040;8.850;2022-11-10T09:37:00;13.90;99.90
32334;DHT22;18810;53.040;8.850;2022-11-10T09:39:26;13.90;99.90
32334;DHT22;18810;53.040;8.850;2022-11-10T09:41:52;14.10;99.90
32334;DHT22;18810;53.040;8.850;2022-11-10T09:44:22;14.00;99.90
32334;DHT22;18810;53.040;8.850;2022-11-10T09:49:59;14.20;99.90
32334;DHT22;18810;53.040;8.850;2022-11-10T09:52:29;14.40;99.90
32334;DHT22;18810;53.040;8.850;2022-11-10T09:55:32;14.40;99.90
32334;DHT22;18810;53.040;8.850;2022-11-10T09:57:52;14.50;99.90
32334;DHT22;18810;53.040;8.850;2022-11-10T10:00:19;14.50;99.90
32334;DHT22;18810;53.040;8.850;2022-11-10T10:02:52;14.50;99.90
32334;DHT22;18810;53.040;8.850;2022-11-10T10:08:18;14.40;99.90
32334;DHT22;18810;53.040;8.850;2022-11-10T10:10:51;14.50;99.90
32334;DHT22;18810;53.040;8.850;2022-11-10T10:13:35;14.70;99.90
32334;DHT22;18810;53.040;8.850;2022-11-10T10:16:22;15.20;99.90
32334;DHT22;18810;53.040;8.850;2022-11-10T10:24:30;15.80;99.90
32334;DHT22;18810;53.040;8.850;2022-11-10T10:26:59;15.80;99.90
32334;DHT22;18810;53.040;8.850;2022-11-10T10:29:30;15.70;99.90
32334;DHT22;18810;53.040;8.850;2022-11-10T10:31:57;15.20;99.90
32334;DHT22;18810;53.040;8.850;2022-11-10T10:34:30;15.30;99.90
32334;DHT22;18810;53.040;8.850;2022-11-10T10:36:59;15.20;99.90
32334;DHT22;18810;53.040;8.850;2022-11-10T10:39:34;15.00;99.90
32334;DHT22;18810;53.040;8.850;2022-11-10T10:42:05;15.10;99.90
32334;DHT22;18810;53.040;8.850;2022-11-10T10:44:31;15.10;99.90
32334;DHT22;18810;53.040;8.850;2022-11-10T10:46:59;15.10;99.90
32334;DHT22;18810;53.040;8.850;2022-11-10T10:49:30;15.10;99.90
32334;DHT22;18810;53.040;8.850;2022-11-10T10:52:13;15.30;99.90
32334;DHT22;18810;53.040;8.850;2022-11-10T10:54:39;15.30;99.90
32334;DHT22;18810;53.040;8.850;2022-11-10T10:57:18;15.30;99.90
32334;DHT22;18810;53.040;8.850;2022-11-10T10:59:45;15.10;99.90
32334;DHT22;18810;53.040;8.850;2022-11-10T11:02:29;15.20;99.90
32334;DHT22;18810;53.040;8.850;2022-11-10T11:05:18;15.60;99.90
32334;DHT22;18810;53.040;8.850;2022-11-10T11:07:55;15.40;99.90
32334;DHT22;18810;53.040;8.850;2022-11-10T11:10:24;15.50;99.90
32334;DHT22;18810;53.040;8.850;2022-11-10T11:12:50;15.40;99.90
32334;DHT22;18810;53.040;8.850;2022-11-10T11:15:29;15.80;99.90
32334;DHT22;18810;53.040;8.850;2022-11-10T11:18:00;16.00;99.90
32334;DHT22;18810;53.040;8.850;2022-11-10T11:21:07;16.10;99.90
32334;DHT22;18810;53.040;8.850;2022-11-10T11:32:05;16.10;99.90
32334;DHT22;18810;53.040;8.850;2022-11-10T11:40:47;16.10;99.90
32334;DHT22;18810;53.040;8.850;2022-11-10T11:51:53;16.40;99.90
32334;DHT22;18810;53.040;8.850;2022-11-10T11:57:23;16.50;99.90
32334;DHT22;18810;53.040;8.850;2022-11-10T12:08:54;16.50;99.90
32334;DHT22;18810;53.040;8.850;2022-11-10T12:22:47;16.70;99.90
32334;DHT22;18810;53.040;8.850;2022-11-10T12:25:23;16.40;99.90
32334;DHT22;18810;53.040;8.850;2022-11-10T12:27:58;16.20;99.90
32334;DHT22;18810;53.040;8.850;2022-11-10T12:30:26;16.30;99.90
32334;DHT22;18810;53.040;8.850;2022-11-10T12:35:54;16.30;99.90
32334;DHT22;18810;53.040;8.850;2022-11-10T12:39:14;16.00;99.90
32334;DHT22;18810;53.040;8.850;2022-11-10T12:41:38;15.80;99.90
32334;DHT22;18810;53.040;8.850;2022-11-10T12:47:05;15.80;99.90
32334;DHT22;18810;53.040;8.850;2022-11-10T12:49:36;15.80;99.90
32334;DHT22;18810;53.040;8.850;2022-11-10T12:52:26;15.70;99.90
32334;DHT22;18810;53.040;8.850;2022-11-10T12:54:53;15.70;99.90
32334;DHT22;18810;53.040;8.850;2022-11-10T12:57:21;15.80;99.90
32334;DHT22;18810;53.040;8.850;2022-11-10T12:59:59;15.80;99.90
32334;DHT22;18810;53.040;8.850;2022-11-10T13:02:40;15.80;99.90
32334;DHT22;18810;53.040;8.850;2022-11-10T13:07:47;15.90;99.90
32334;DHT22;18810;53.040;8.850;2022-11-10T13:18:04;15.90;99.90
32334;DHT22;18810;53.040;8.850;2022-11-10T13:20:51;15.80;99.90
32334;DHT22;18810;53.040;8.850;2022-11-10T13:25:57;15.90;99.90
32334;DHT22;18810;53.040;8.850;2022-11-10T13:29:00;16.00;99.90
32334;DHT22;18810;53.040;8.850;2022-11-10T13:34:09;15.80;99.90
32334;DHT22;18810;53.040;8.850;2022-11-10T13:39:26;16.00;99.90
32334;DHT22;18810;53.040;8.850;2022-11-10T13:44:34;15.70;99.90
32334;DHT22;18810;53.040;8.850;2022-11-10T13:55:19;15.40;99.90
32334;DHT22;18810;53.040;8.850;2022-11-10T13:58:31;15.30;99.90
32334;DHT22;18810;53.040;8.850;2022-11-10T14:06:23;15.30;99.90
32334;DHT22;18810;53.040;8.850;2022-11-10T14:09:03;15.30;99.90
32334;DHT22;18810;53.040;8.850;2022-11-10T14:11:36;15.30;99.90
32334;DHT22;18810;53.040;8.850;2022-11-10T14:14:26;15.40;99.90
32334;DHT22;18810;53.040;8.850;2022-11-10T14:16:54;15.40;99.90
32334;DHT22;18810;53.040;8.850;2022-11-10T14:19:42;15.40;99.90
32334;DHT22;18810;53.040;8.850;2022-11-10T14:22:32;15.50;99.90
32334;DHT22;18810;53.040;8.850;2022-11-10T14:27:51;15.40;99.90
32334;DHT22;18810;53.040;8.850;2022-11-10T14:30:30;15.50;99.90
32334;DHT22;18810;53.040;8.850;2022-11-10T14:33:30;15.40;99.90
32334;DHT22;18810;53.040;8.850;2022-11-10T14:35:54;15.30;99.90
32334;DHT22;18810;53.040;8.850;2022-11-10T14:38:29;15.30;99.90
32334;DHT22;18810;53.040;8.850;2022-11-10T14:40:59;15.30;99.90
32334;DHT22;18810;53.040;8.850;2022-11-10T14:43:33;15.40;99.90
32334;DHT22;18810;53.040;8.850;2022-11-10T14:46:02;15.30;99.90
32334;DHT22;18810;53.040;8.850;2022-11-10T14:48:33;15.30;99.90
32334;DHT22;18810;53.040;8.850;2022-11-10T14:51:14;15.40;99.90
32334;DHT22;18810;53.040;8.850;2022-11-10T14:53:51;15.30;99.90
32334;DHT22;18810;53.040;8.850;2022-11-10T14:56:28;15.30;99.90
32334;DHT22;18810;53.040;8.850;2022-11-10T14:58:55;15.30;99.90
32334;DHT22;18810;53.040;8.850;2022-11-10T15:01:35;15.30;99.90
32334;DHT22;18810;53.040;8.850;2022-11-10T15:04:06;15.20;99.90
32334;DHT22;18810;53.040;8.850;2022-11-10T15:06:33;15.10;99.90
32334;DHT22;18810;53.040;8.850;2022-11-10T15:09:14;15.10;99.90
32334;DHT22;18810;53.040;8.850;2022-11-10T15:11:51;15.20;99.90
32334;DHT22;18810;53.040;8.850;2022-11-10T15:17:05;15.10;99.90
32334;DHT22;18810;53.040;8.850;2022-11-10T15:19:48;15.10;99.90
32334;DHT22;18810;53.040;8.850;2022-11-10T15:22:33;15.00;99.90
32334;DHT22;18810;53.040;8.850;2022-11-10T15:25:00;14.90;99.90
32334;DHT22;18810;53.040;8.850;2022-11-10T15:27:31;14.90;99.90
32334;DHT22;18810;53.040;8.850;2022-11-10T15:30:00;14.90;99.90
32334;DHT22;18810;53.040;8.850;2022-11-10T15:32:35;14.90;99.90
32334;DHT22;18810;53.040;8.850;2022-11-10T15:38:01;14.90;99.90
32334;DHT22;18810;53.040;8.850;2022-11-10T15:43:11;14.80;99.90
32334;DHT22;18810;53.040;8.850;2022-11-10T15:45:37;14.80;99.90
32334;DHT22;18810;53.040;8.850;2022-11-10T15:48:07;14.80;99.90
32334;DHT22;18810;53.040;8.850;2022-11-10T15:50:36;14.80;99.90
32334;DHT22;18810;53.040;8.850;2022-11-10T15:53:04;14.90;99.90
32334;DHT22;18810;53.040;8.850;2022-11-10T15:55:31;14.70;99.90
32334;DHT22;18810;53.040;8.850;2022-11-10T15:57:58;14.80;99.90
32334;DHT22;18810;53.040;8.850;2022-11-10T16:00:24;14.70;99.90
32334;DHT22;18810;53.040;8.850;2022-11-10T16:02:50;14.70;99.90
32334;DHT22;18810;53.040;8.850;2022-11-10T16:05:16;14.70;99.90
32334;DHT22;18810;53.040;8.850;2022-11-10T16:07:42;14.70;99.90
32334;DHT22;18810;53.040;8.850;2022-11-10T16:10:08;14.70;99.90
32334;DHT22;18810;53.040;8.850;2022-11-10T16:12:34;14.60;99.90
32334;DHT22;18810;53.040;8.850;2022-11-10T16:15:00;14.60;99.90
32334;DHT22;18810;53.040;8.850;2022-11-10T16:17:26;14.60;99.90
32334;DHT22;18810;53.040;8.850;2022-11-10T16:19:52;14.50;99.90
32334;DHT22;18810;53.040;8.850;2022-11-10T16:22:18;14.50;99.90
32334;DHT22;18810;53.040;8.850;2022-11-10T16:24:43;14.40;99.90
32334;DHT22;18810;53.040;8.850;2022-11-10T16:27:13;14.40;99.90
32334;DHT22;18810;53.040;8.850;2022-11-10T16:29:40;14.50;99.90
32334;DHT22;18810;53.040;8.850;2022-11-10T16:32:07;14.60;99.90
32334;DHT22;18810;53.040;8.850;2022-11-10T16:34:33;14.60;99.90
32334;DHT22;18810;53.040;8.850;2022-11-10T16:36:59;14.50;99.90
32334;DHT22;18810;53.040;8.850;2022-11-10T16:39:25;14.40;99.90
32334;DHT22;18810;53.040;8.850;2022-11-10T16:41:52;14.40;99.90
32334;DHT22;18810;53.040;8.850;2022-11-10T16:44:17;14.40;99.90
32334;DHT22;18810;53.040;8.850;2022-11-10T16:46:51;14.40;99.90
32334;DHT22;18810;53.040;8.850;2022-11-10T16:49:33;14.50;99.90
32334;DHT22;18810;53.040;8.850;2022-11-10T16:52:03;14.30;99.90
32334;DHT22;18810;53.040;8.850;2022-11-10T16:54:32;14.30;99.90
32334;DHT22;18810;53.040;8.850;2022-11-10T16:56:58;14.30;99.90
32334;DHT22;18810;53.040;8.850;2022-11-10T16:59:24;14.20;99.90
32334;DHT22;18810;53.040;8.850;2022-11-10T17:01:51;14.10;99.90
32334;DHT22;18810;53.040;8.850;2022-11-10T17:04:17;14.20;99.90
32334;DHT22;18810;53.040;8.850;2022-11-10T17:06:43;14.30;99.90
32334;DHT22;18810;53.040;8.850;2022-11-10T17:09:22;14.30;99.90
32334;DHT22;18810;53.040;8.850;2022-11-10T17:11:50;14.20;99.90
32334;DHT22;18810;53.040;8.850;2022-11-10T17:14:16;14.10;99.90
32334;DHT22;18810;53.040;8.850;2022-11-10T17:16:43;14.10;99.90
32334;DHT22;18810;53.040;8.850;2022-11-10T17:19:16;14.20;99.90
32334;DHT22;18810;53.040;8.850;2022-11-10T17:21:43;14.20;99.90
32334;DHT22;18810;53.040;8.850;2022-11-10T17:24:11;14.10;99.90
32334;DHT22;18810;53.040;8.850;2022-11-10T17:26:38;14.10;99.90
32334;DHT22;18810;53.040;8.850;2022-11-10T17:29:04;14.10;99.90
32334;DHT22;18810;53.040;8.850;2022-11-10T17:31:30;14.20;99.90
32334;DHT22;18810;53.040;8.850;2022-11-10T17:33:56;14.20;99.90
32334;DHT22;18810;53.040;8.850;2022-11-10T17:36:22;14.10;99.90
32334;DHT22;18810;53.040;8.850;2022-11-10T17:38:52;14.10;99.90
32334;DHT22;18810;53.040;8.850;2022-11-10T17:41:18;14.20;99.90
32334;DHT22;18810;53.040;8.850;2022-11-10T17:43:45;14.20;99.90
32334;DHT22;18810;53.040;8.850;2022-11-10T17:46:12;14.20;99.90
32334;DHT22;18810;53.040;8.850;2022-11-10T17:48:37;14.20;99.90
32334;DHT22;18810;53.040;8.850;2022-11-10T17:51:04;14.20;99.90
32334;DHT22;18810;53.040;8.850;2022-11-10T17:53:30;14.10;99.90
32334;DHT22;18810;53.040;8.850;2022-11-10T17:55:56;14.10;99.90
32334;DHT22;18810;53.040;8.850;2022-11-10T17:58:22;14.10;99.90
32334;DHT22;18810;53.040;8.850;2022-11-10T18:00:48;14.20;99.90
32334;DHT22;18810;53.040;8.850;2022-11-10T18:03:15;14.20;99.90
32334;DHT22;18810;53.040;8.850;2022-11-10T18:05:42;14.20;99.90
32334;DHT22;18810;53.040;8.850;2022-11-10T18:08:08;14.10;99.90
32334;DHT22;18810;53.040;8.850;2022-11-10T18:10:34;14.00;99.90
32334;DHT22;18810;53.040;8.850;2022-11-10T18:13:00;13.90;99.90
32334;DHT22;18810;53.040;8.850;2022-11-10T18:15:26;13.80;99.90
32334;DHT22;18810;53.040;8.850;2022-11-10T18:17:51;13.90;99.90
32334;DHT22;18810;53.040;8.850;2022-11-10T18:20:18;13.80;99.90
32334;DHT22;18810;53.040;8.850;2022-11-10T18:22:44;13.70;99.90
32334;DHT22;18810;53.040;8.850;2022-11-10T18:25:10;13.70;99.90
32334;DHT22;18810;53.040;8.850;2022-11-10T18:27:36;13.70;99.90
32334;DHT22;18810;53.040;8.850;2022-11-10T18:30:03;13.70;99.90
32334;DHT22;18810;53.040;8.850;2022-11-10T18:32:29;13.60;99.90
32334;DHT22;18810;53.040;8.850;2022-11-10T18:34:54;13.50;99.90
32334;DHT22;18810;53.040;8.850;2022-11-10T18:37:20;13.40;99.90
32334;DHT22;18810;53.040;8.850;2022-11-10T18:39:46;13.40;99.90